sensor_id;sensor_type;location;lat;lon;timestamp;P1;durP1;ratioP1;P2;durP2;ratioP2
81242;SDS011;70716;50.074;14.496;2023-06-14T00:01:27;6.43;;;3.33;;
81242;SDS011;70716;50.074;14.496;2023-06-14T00:03:53;6.78;;;3.22;;
81242;SDS011;70716;50.074;14.496;2023-06-14T00:06:20;7.57;;;3.15;;
81242;SDS011;70716;50.074;14.496;2023-06-14T00:08:46;6.30;;;3.15;;
81242;SDS011;70716;50.074;14.496;2023-06-14T00:11:11;6.45;;;3.17;;
81242;SDS011;70716;50.074;14.496;2023-06-14T00:13:36;5.97;;;3.08;;
81242;SDS011;70716;50.074;14.496;2023-06-14T00:16:02;8.60;;;4.50;;
81242;SDS011;70716;50.074;14.496;2023-06-14T00:18:28;7.82;;;3.28;;
81242;SDS011;70716;50.074;14.496;2023-06-14T00:20:54;5.65;;;3.00;;
81242;SDS011;70716;50.074;14.496;2023-06-14T00:23:22;5.82;;;3.10;;
81242;SDS011;70716;50.074;14.496;2023-06-14T00:25:47;6.30;;;3.28;;
81242;SDS011;70716;50.074;14.496;2023-06-14T00:28:13;7.25;;;3.45;;
81242;SDS011;70716;50.074;14.496;2023-06-14T00:30:38;6.07;;;3.45;;
81242;SDS011;70716;50.074;14.496;2023-06-14T00:33:04;6.10;;;3.47;;
81242;SDS011;70716;50.074;14.496;2023-06-14T00:35:29;7.53;;;3.65;;
81242;SDS011;70716;50.074;14.496;2023-06-14T00:37:55;6.80;;;3.25;;
81242;SDS011;70716;50.074;14.496;2023-06-14T00:40:20;6.88;;;3.90;;
81242;SDS011;70716;50.074;14.496;2023-06-14T00:42:46;6.40;;;3.40;;
81242;SDS011;70716;50.074;14.496;2023-06-14T00:45:12;6.82;;;3.58;;
81242;SDS011;70716;50.074;14.496;2023-06-14T00:47:38;6.90;;;3.50;;
81242;SDS011;70716;50.074;14.496;2023-06-14T00:50:06;6.20;;;3.35;;
81242;SDS011;70716;50.074;14.496;2023-06-14T00:52:32;7.97;;;4.05;;
81242;SDS011;70716;50.074;14.496;2023-06-14T00:54:58;6.15;;;3.33;;
81242;SDS011;70716;50.074;14.496;2023-06-14T00:57:24;6.07;;;3.38;;
81242;SDS011;70716;50.074;14.496;2023-06-14T00:59:49;5.43;;;2.88;;
81242;SDS011;70716;50.074;14.496;2023-06-14T01:02:17;7.13;;;3.42;;
81242;SDS011;70716;50.074;14.496;2023-06-14T01:04:48;5.93;;;2.75;;
81242;SDS011;70716;50.074;14.496;2023-06-14T01:15:31;7.40;;;3.45;;
81242;SDS011;70716;50.074;14.496;2023-06-14T01:17:57;6.20;;;3.40;;
81242;SDS011;70716;50.074;14.496;2023-06-14T01:20:32;5.95;;;3.15;;
81242;SDS011;70716;50.074;14.496;2023-06-14T01:23:01;6.50;;;3.22;;
81242;SDS011;70716;50.074;14.496;2023-06-14T01:25:27;6.68;;;3.45;;
81242;SDS011;70716;50.074;14.496;2023-06-14T01:27:53;6.22;;;2.90;;
81242;SDS011;70716;50.074;14.496;2023-06-14T01:30:20;5.90;;;3.50;;
81242;SDS011;70716;50.074;14.496;2023-06-14T01:32:47;7.13;;;3.53;;
81242;SDS011;70716;50.074;14.496;2023-06-14T01:35:15;6.57;;;3.67;;
81242;SDS011;70716;50.074;14.496;2023-06-14T01:37:41;6.72;;;3.50;;
81242;SDS011;70716;50.074;14.496;2023-06-14T01:40:08;7.13;;;3.55;;
81242;SDS011;70716;50.074;14.496;2023-06-14T01:42:36;6.88;;;3.20;;
81242;SDS011;70716;50.074;14.496;2023-06-14T01:45:03;6.57;;;3.75;;
81242;SDS011;70716;50.074;14.496;2023-06-14T01:47:30;6.57;;;3.63;;
81242;SDS011;70716;50.074;14.496;2023-06-14T01:52:23;6.33;;;3.27;;
81242;SDS011;70716;50.074;14.496;2023-06-14T01:54:49;6.70;;;3.78;;
81242;SDS011;70716;50.074;14.496;2023-06-14T01:57:17;6.50;;;3.78;;
81242;SDS011;70716;50.074;14.496;2023-06-14T01:59:42;7.63;;;3.97;;
81242;SDS011;70716;50.074;14.496;2023-06-14T02:02:13;5.60;;;3.10;;
81242;SDS011;70716;50.074;14.496;2023-06-14T02:04:39;7.63;;;3.50;;
81242;SDS011;70716;50.074;14.496;2023-06-14T02:07:04;7.53;;;3.50;;
81242;SDS011;70716;50.074;14.496;2023-06-14T02:09:30;6.60;;;3.42;;
81242;SDS011;70716;50.074;14.496;2023-06-14T02:11:55;6.57;;;3.78;;
81242;SDS011;70716;50.074;14.496;2023-06-14T02:14:21;6.35;;;3.22;;
81242;SDS011;70716;50.074;14.496;2023-06-14T02:16:46;5.90;;;3.55;;
81242;SDS011;70716;50.074;14.496;2023-06-14T02:19:15;6.78;;;3.60;;
81242;SDS011;70716;50.074;14.496;2023-06-14T02:21:41;7.18;;;4.05;;
81242;SDS011;70716;50.074;14.496;2023-06-14T02:24:07;8.15;;;3.92;;
81242;SDS011;70716;50.074;14.496;2023-06-14T02:26:32;7.30;;;4.10;;
81242;SDS011;70716;50.074;14.496;2023-06-14T02:28:57;6.88;;;4.28;;
81242;SDS011;70716;50.074;14.496;2023-06-14T02:31:23;7.03;;;3.83;;
81242;SDS011;70716;50.074;14.496;2023-06-14T02:33:49;7.57;;;4.35;;
81242;SDS011;70716;50.074;14.496;2023-06-14T02:36:14;6.95;;;3.88;;
81242;SDS011;70716;50.074;14.496;2023-06-14T02:38:40;7.28;;;4.25;;
81242;SDS011;70716;50.074;14.496;2023-06-14T02:41:06;8.32;;;5.03;;
81242;SDS011;70716;50.074;14.496;2023-06-14T02:43:31;8.20;;;5.20;;
81242;SDS011;70716;50.074;14.496;2023-06-14T02:45:56;7.47;;;4.68;;
81242;SDS011;70716;50.074;14.496;2023-06-14T02:48:22;7.93;;;4.50;;
81242;SDS011;70716;50.074;14.496;2023-06-14T02:50:47;9.57;;;5.20;;
81242;SDS011;70716;50.074;14.496;2023-06-14T02:53:16;9.38;;;5.20;;
81242;SDS011;70716;50.074;14.496;2023-06-14T02:55:42;7.97;;;4.40;;
81242;SDS011;70716;50.074;14.496;2023-06-14T02:58:07;7.45;;;4.75;;
81242;SDS011;70716;50.074;14.496;2023-06-14T03:00:33;9.48;;;4.85;;
81242;SDS011;70716;50.074;14.496;2023-06-14T03:03:00;8.20;;;4.63;;
81242;SDS011;70716;50.074;14.496;2023-06-14T03:05:27;8.93;;;5.22;;
81242;SDS011;70716;50.074;14.496;2023-06-14T03:07:56;8.77;;;5.35;;
81242;SDS011;70716;50.074;14.496;2023-06-14T03:10:22;10.20;;;5.65;;
81242;SDS011;70716;50.074;14.496;2023-06-14T03:12:47;8.85;;;4.78;;
81242;SDS011;70716;50.074;14.496;2023-06-14T03:15:13;10.52;;;5.15;;
81242;SDS011;70716;50.074;14.496;2023-06-14T03:17:38;8.32;;;4.60;;
81242;SDS011;70716;50.074;14.496;2023-06-14T03:20:04;9.27;;;4.78;;
81242;SDS011;70716;50.074;14.496;2023-06-14T03:22:30;8.77;;;5.18;;
81242;SDS011;70716;50.074;14.496;2023-06-14T03:24:58;8.75;;;4.65;;
81242;SDS011;70716;50.074;14.496;2023-06-14T03:27:24;9.63;;;4.97;;
81242;SDS011;70716;50.074;14.496;2023-06-14T03:29:50;8.07;;;4.47;;
81242;SDS011;70716;50.074;14.496;2023-06-14T03:32:16;7.90;;;4.70;;
81242;SDS011;70716;50.074;14.496;2023-06-14T03:34:41;8.60;;;4.78;;
81242;SDS011;70716;50.074;14.496;2023-06-14T03:37:07;10.32;;;4.90;;
81242;SDS011;70716;50.074;14.496;2023-06-14T03:39:33;9.88;;;4.63;;
81242;SDS011;70716;50.074;14.496;2023-06-14T03:41:58;8.85;;;4.57;;
81242;SDS011;70716;50.074;14.496;2023-06-14T03:44:26;8.52;;;4.95;;
81242;SDS011;70716;50.074;14.496;2023-06-14T03:46:51;7.57;;;4.80;;
81242;SDS011;70716;50.074;14.496;2023-06-14T03:49:18;9.80;;;5.50;;
81242;SDS011;70716;50.074;14.496;2023-06-14T03:51:43;8.90;;;4.53;;
81242;SDS011;70716;50.074;14.496;2023-06-14T03:54:09;7.22;;;4.60;;
81242;SDS011;70716;50.074;14.496;2023-06-14T03:56:35;7.93;;;4.70;;
81242;SDS011;70716;50.074;14.496;2023-06-14T03:59:01;7.93;;;4.30;;
81242;SDS011;70716;50.074;14.496;2023-06-14T04:01:26;7.68;;;4.43;;
81242;SDS011;70716;50.074;14.496;2023-06-14T04:03:54;8.02;;;4.88;;
81242;SDS011;70716;50.074;14.496;2023-06-14T04:06:20;8.65;;;4.20;;
81242;SDS011;70716;50.074;14.496;2023-06-14T04:08:46;9.05;;;4.90;;
81242;SDS011;70716;50.074;14.496;2023-06-14T04:11:14;7.80;;;4.10;;
81242;SDS011;70716;50.074;14.496;2023-06-14T04:13:40;8.25;;;4.68;;
81242;SDS011;70716;50.074;14.496;2023-06-14T04:16:05;8.45;;;4.38;;
81242;SDS011;70716;50.074;14.496;2023-06-14T04:18:30;8.40;;;4.45;;
81242;SDS011;70716;50.074;14.496;2023-06-14T04:20:56;7.90;;;4.22;;
81242;SDS011;70716;50.074;14.496;2023-06-14T04:23:21;7.90;;;4.53;;
81242;SDS011;70716;50.074;14.496;2023-06-14T04:25:47;10.57;;;4.05;;
81242;SDS011;70716;50.074;14.496;2023-06-14T04:28:15;8.10;;;4.43;;
81242;SDS011;70716;50.074;14.496;2023-06-14T04:30:42;11.18;;;4.85;;
81242;SDS011;70716;50.074;14.496;2023-06-14T04:33:08;6.70;;;4.30;;
81242;SDS011;70716;50.074;14.496;2023-06-14T04:35:35;6.82;;;3.97;;
81242;SDS011;70716;50.074;14.496;2023-06-14T04:38:02;7.30;;;3.97;;
81242;SDS011;70716;50.074;14.496;2023-06-14T04:40:30;8.30;;;4.70;;
81242;SDS011;70716;50.074;14.496;2023-06-14T04:42:56;7.65;;;4.57;;
81242;SDS011;70716;50.074;14.496;2023-06-14T04:45:22;8.70;;;5.22;;
81242;SDS011;70716;50.074;14.496;2023-06-14T04:47:47;11.35;;;5.10;;
81242;SDS011;70716;50.074;14.496;2023-06-14T04:50:13;8.80;;;4.88;;
81242;SDS011;70716;50.074;14.496;2023-06-14T04:52:41;8.80;;;4.80;;
81242;SDS011;70716;50.074;14.496;2023-06-14T04:55:07;8.65;;;5.50;;
81242;SDS011;70716;50.074;14.496;2023-06-14T04:57:33;11.05;;;4.97;;
81242;SDS011;70716;50.074;14.496;2023-06-14T05:00:00;9.55;;;5.63;;
81242;SDS011;70716;50.074;14.496;2023-06-14T05:02:29;10.60;;;4.97;;
81242;SDS011;70716;50.074;14.496;2023-06-14T05:04:55;9.23;;;4.82;;
81242;SDS011;70716;50.074;14.496;2023-06-14T05:07:22;7.90;;;4.47;;
81242;SDS011;70716;50.074;14.496;2023-06-14T05:09:49;8.02;;;4.93;;
81242;SDS011;70716;50.074;14.496;2023-06-14T05:12:14;9.82;;;5.30;;
81242;SDS011;70716;50.074;14.496;2023-06-14T05:14:43;7.22;;;4.40;;
81242;SDS011;70716;50.074;14.496;2023-06-14T05:17:08;8.80;;;4.47;;
81242;SDS011;70716;50.074;14.496;2023-06-14T05:19:34;9.80;;;4.82;;
81242;SDS011;70716;50.074;14.496;2023-06-14T05:22:00;7.30;;;4.50;;
81242;SDS011;70716;50.074;14.496;2023-06-14T05:24:25;7.40;;;4.25;;
81242;SDS011;70716;50.074;14.496;2023-06-14T05:26:50;8.93;;;4.53;;
81242;SDS011;70716;50.074;14.496;2023-06-14T05:29:16;8.65;;;4.40;;
81242;SDS011;70716;50.074;14.496;2023-06-14T05:31:41;8.07;;;4.57;;
81242;SDS011;70716;50.074;14.496;2023-06-14T05:34:07;8.25;;;3.97;;
81242;SDS011;70716;50.074;14.496;2023-06-14T05:36:32;7.55;;;4.28;;
81242;SDS011;70716;50.074;14.496;2023-06-14T05:38:57;7.45;;;3.92;;
81242;SDS011;70716;50.074;14.496;2023-06-14T05:41:27;7.45;;;3.92;;
81242;SDS011;70716;50.074;14.496;2023-06-14T05:43:54;7.10;;;4.28;;
81242;SDS011;70716;50.074;14.496;2023-06-14T05:46:20;8.88;;;4.18;;
81242;SDS011;70716;50.074;14.496;2023-06-14T05:48:49;8.10;;;4.32;;
81242;SDS011;70716;50.074;14.496;2023-06-14T05:51:15;7.07;;;3.90;;
81242;SDS011;70716;50.074;14.496;2023-06-14T05:53:44;5.78;;;3.83;;
81242;SDS011;70716;50.074;14.496;2023-06-14T05:56:11;7.07;;;3.80;;
81242;SDS011;70716;50.074;14.496;2023-06-14T05:58:36;8.00;;;4.15;;
81242;SDS011;70716;50.074;14.496;2023-06-14T06:01:01;7.05;;;3.78;;
81242;SDS011;70716;50.074;14.496;2023-06-14T06:03:27;7.20;;;3.67;;
81242;SDS011;70716;50.074;14.496;2023-06-14T06:10:45;7.28;;;4.28;;
81242;SDS011;70716;50.074;14.496;2023-06-14T06:13:10;8.05;;;4.25;;
81242;SDS011;70716;50.074;14.496;2023-06-14T06:15:35;7.85;;;4.05;;
81242;SDS011;70716;50.074;14.496;2023-06-14T06:18:01;7.13;;;4.22;;
81242;SDS011;70716;50.074;14.496;2023-06-14T06:20:26;7.13;;;4.10;;
81242;SDS011;70716;50.074;14.496;2023-06-14T06:22:53;6.80;;;4.00;;
81242;SDS011;70716;50.074;14.496;2023-06-14T06:25:19;7.72;;;4.05;;
81242;SDS011;70716;50.074;14.496;2023-06-14T06:27:44;7.75;;;4.32;;
81242;SDS011;70716;50.074;14.496;2023-06-14T06:30:10;7.93;;;4.20;;
81242;SDS011;70716;50.074;14.496;2023-06-14T06:32:36;8.82;;;4.18;;
81242;SDS011;70716;50.074;14.496;2023-06-14T06:35:02;7.40;;;4.30;;
81242;SDS011;70716;50.074;14.496;2023-06-14T06:37:31;7.82;;;4.10;;
81242;SDS011;70716;50.074;14.496;2023-06-14T06:39:56;7.03;;;4.45;;
81242;SDS011;70716;50.074;14.496;2023-06-14T06:42:22;6.38;;;3.78;;
81242;SDS011;70716;50.074;14.496;2023-06-14T06:44:47;7.75;;;4.45;;
81242;SDS011;70716;50.074;14.496;2023-06-14T06:47:12;10.20;;;4.57;;
81242;SDS011;70716;50.074;14.496;2023-06-14T06:49:38;8.02;;;4.22;;
81242;SDS011;70716;50.074;14.496;2023-06-14T06:52:04;9.57;;;4.53;;
81242;SDS011;70716;50.074;14.496;2023-06-14T06:54:31;8.30;;;4.72;;
81242;SDS011;70716;50.074;14.496;2023-06-14T06:56:57;8.00;;;4.32;;
81242;SDS011;70716;50.074;14.496;2023-06-14T06:59:23;9.25;;;3.85;;
81242;SDS011;70716;50.074;14.496;2023-06-14T07:01:48;9.45;;;4.32;;
81242;SDS011;70716;50.074;14.496;2023-06-14T07:04:14;10.15;;;5.13;;
81242;SDS011;70716;50.074;14.496;2023-06-14T07:06:39;8.45;;;5.15;;
81242;SDS011;70716;50.074;14.496;2023-06-14T07:09:05;6.57;;;4.07;;
81242;SDS011;70716;50.074;14.496;2023-06-14T07:11:33;8.07;;;4.20;;
81242;SDS011;70716;50.074;14.496;2023-06-14T07:13:58;8.30;;;4.72;;
81242;SDS011;70716;50.074;14.496;2023-06-14T07:16:24;7.47;;;4.60;;
81242;SDS011;70716;50.074;14.496;2023-06-14T07:18:50;6.57;;;4.03;;
81242;SDS011;70716;50.074;14.496;2023-06-14T07:21:16;7.03;;;3.92;;
81242;SDS011;70716;50.074;14.496;2023-06-14T07:23:41;7.65;;;4.10;;
81242;SDS011;70716;50.074;14.496;2023-06-14T07:26:07;7.22;;;4.05;;
81242;SDS011;70716;50.074;14.496;2023-06-14T07:28:32;7.80;;;4.80;;
81242;SDS011;70716;50.074;14.496;2023-06-14T07:30:57;5.90;;;3.97;;
81242;SDS011;70716;50.074;14.496;2023-06-14T07:33:23;8.18;;;4.15;;
81242;SDS011;70716;50.074;14.496;2023-06-14T07:35:48;9.35;;;4.43;;
81242;SDS011;70716;50.074;14.496;2023-06-14T07:38:15;14.52;;;4.63;;
81242;SDS011;70716;50.074;14.496;2023-06-14T07:40:40;6.95;;;3.90;;
81242;SDS011;70716;50.074;14.496;2023-06-14T07:43:05;9.13;;;3.80;;
81242;SDS011;70716;50.074;14.496;2023-06-14T07:45:31;6.63;;;3.22;;
81242;SDS011;70716;50.074;14.496;2023-06-14T07:47:56;7.90;;;4.13;;
81242;SDS011;70716;50.074;14.496;2023-06-14T07:50:21;6.32;;;3.80;;
81242;SDS011;70716;50.074;14.496;2023-06-14T07:52:47;7.80;;;3.95;;
81242;SDS011;70716;50.074;14.496;2023-06-14T07:55:13;6.53;;;4.35;;
81242;SDS011;70716;50.074;14.496;2023-06-14T07:57:40;6.70;;;3.97;;
81242;SDS011;70716;50.074;14.496;2023-06-14T08:00:05;7.75;;;4.20;;
81242;SDS011;70716;50.074;14.496;2023-06-14T08:02:31;7.65;;;3.97;;
81242;SDS011;70716;50.074;14.496;2023-06-14T08:05:00;6.68;;;3.95;;
81242;SDS011;70716;50.074;14.496;2023-06-14T08:07:26;8.40;;;4.20;;
81242;SDS011;70716;50.074;14.496;2023-06-14T08:09:51;6.57;;;3.60;;
81242;SDS011;70716;50.074;14.496;2023-06-14T08:12:17;9.73;;;4.00;;
81242;SDS011;70716;50.074;14.496;2023-06-14T08:14:42;6.55;;;4.07;;
81242;SDS011;70716;50.074;14.496;2023-06-14T08:17:08;8.63;;;4.10;;
81242;SDS011;70716;50.074;14.496;2023-06-14T08:19:33;8.50;;;3.80;;
81242;SDS011;70716;50.074;14.496;2023-06-14T08:21:58;6.95;;;3.47;;
81242;SDS011;70716;50.074;14.496;2023-06-14T08:24:24;6.70;;;3.53;;
81242;SDS011;70716;50.074;14.496;2023-06-14T08:31:42;7.23;;;3.67;;
81242;SDS011;70716;50.074;14.496;2023-06-14T08:34:08;7.03;;;3.53;;
81242;SDS011;70716;50.074;14.496;2023-06-14T08:36:34;8.45;;;2.88;;
81242;SDS011;70716;50.074;14.496;2023-06-14T08:39:00;7.65;;;3.40;;
81242;SDS011;70716;50.074;14.496;2023-06-14T08:41:25;7.45;;;3.38;;
81242;SDS011;70716;50.074;14.496;2023-06-14T08:43:54;8.27;;;3.83;;
81242;SDS011;70716;50.074;14.496;2023-06-14T08:46:20;7.20;;;3.20;;
81242;SDS011;70716;50.074;14.496;2023-06-14T08:48:51;6.57;;;3.40;;
81242;SDS011;70716;50.074;14.496;2023-06-14T08:51:20;7.20;;;3.33;;
81242;SDS011;70716;50.074;14.496;2023-06-14T08:53:52;6.95;;;3.85;;
81242;SDS011;70716;50.074;14.496;2023-06-14T08:56:23;5.80;;;3.35;;
81242;SDS011;70716;50.074;14.496;2023-06-14T08:58:54;7.50;;;3.40;;
81242;SDS011;70716;50.074;14.496;2023-06-14T09:01:21;7.32;;;3.85;;
81242;SDS011;70716;50.074;14.496;2023-06-14T09:03:48;7.28;;;4.30;;
81242;SDS011;70716;50.074;14.496;2023-06-14T09:06:14;7.78;;;3.70;;
81242;SDS011;70716;50.074;14.496;2023-06-14T09:08:44;8.30;;;4.05;;
81242;SDS011;70716;50.074;14.496;2023-06-14T09:11:14;8.15;;;3.75;;
81242;SDS011;70716;50.074;14.496;2023-06-14T09:13:44;6.70;;;3.60;;
81242;SDS011;70716;50.074;14.496;2023-06-14T09:16:11;7.03;;;4.03;;
81242;SDS011;70716;50.074;14.496;2023-06-14T09:18:41;6.20;;;3.67;;
81242;SDS011;70716;50.074;14.496;2023-06-14T09:21:12;7.00;;;3.63;;
81242;SDS011;70716;50.074;14.496;2023-06-14T09:23:43;6.15;;;3.78;;
81242;SDS011;70716;50.074;14.496;2023-06-14T09:26:10;7.32;;;4.05;;
81242;SDS011;70716;50.074;14.496;2023-06-14T09:28:56;8.27;;;4.15;;
81242;SDS011;70716;50.074;14.496;2023-06-14T09:31:22;7.43;;;3.50;;
81242;SDS011;70716;50.074;14.496;2023-06-14T09:33:48;7.90;;;3.78;;
81242;SDS011;70716;50.074;14.496;2023-06-14T09:36:15;7.38;;;3.90;;
81242;SDS011;70716;50.074;14.496;2023-06-14T09:38:56;6.95;;;3.60;;
81242;SDS011;70716;50.074;14.496;2023-06-14T09:41:31;7.22;;;3.92;;
81242;SDS011;70716;50.074;14.496;2023-06-14T09:44:01;7.70;;;4.00;;
81242;SDS011;70716;50.074;14.496;2023-06-14T09:46:28;11.40;;;4.43;;
81242;SDS011;70716;50.074;14.496;2023-06-14T09:48:58;6.13;;;3.33;;
81242;SDS011;70716;50.074;14.496;2023-06-14T09:51:24;7.18;;;3.83;;
81242;SDS011;70716;50.074;14.496;2023-06-14T09:58:45;6.60;;;3.72;;
81242;SDS011;70716;50.074;14.496;2023-06-14T10:01:11;7.25;;;4.18;;
81242;SDS011;70716;50.074;14.496;2023-06-14T10:03:38;6.97;;;3.60;;
81242;SDS011;70716;50.074;14.496;2023-06-14T10:06:04;7.97;;;3.83;;
81242;SDS011;70716;50.074;14.496;2023-06-14T10:08:33;6.85;;;3.33;;
81242;SDS011;70716;50.074;14.496;2023-06-14T10:11:02;7.03;;;3.80;;
81242;SDS011;70716;50.074;14.496;2023-06-14T10:13:28;7.00;;;3.63;;
81242;SDS011;70716;50.074;14.496;2023-06-14T10:16:00;8.43;;;4.53;;
81242;SDS011;70716;50.074;14.496;2023-06-14T10:21:33;7.35;;;3.92;;
81242;SDS011;70716;50.074;14.496;2023-06-14T10:24:07;6.65;;;3.30;;
81242;SDS011;70716;50.074;14.496;2023-06-14T10:26:49;6.35;;;3.50;;
81242;SDS011;70716;50.074;14.496;2023-06-14T10:29:16;6.40;;;3.80;;
81242;SDS011;70716;50.074;14.496;2023-06-14T10:31:43;6.68;;;3.50;;
81242;SDS011;70716;50.074;14.496;2023-06-14T10:34:14;7.72;;;3.63;;
81242;SDS011;70716;50.074;14.496;2023-06-14T10:37:06;6.32;;;3.47;;
81242;SDS011;70716;50.074;14.496;2023-06-14T10:39:42;6.97;;;4.05;;
81242;SDS011;70716;50.074;14.496;2023-06-14T10:42:14;7.00;;;3.90;;
81242;SDS011;70716;50.074;14.496;2023-06-14T10:44:41;7.38;;;3.63;;
81242;SDS011;70716;50.074;14.496;2023-06-14T10:47:23;5.10;;;3.17;;
81242;SDS011;70716;50.074;14.496;2023-06-14T10:50:09;5.63;;;3.15;;
81242;SDS011;70716;50.074;14.496;2023-06-14T10:52:42;6.82;;;3.30;;
81242;SDS011;70716;50.074;14.496;2023-06-14T10:55:12;5.32;;;3.17;;
81242;SDS011;70716;50.074;14.496;2023-06-14T11:00:20;6.55;;;3.60;;
81242;SDS011;70716;50.074;14.496;2023-06-14T11:11:18;6.07;;;3.40;;
81242;SDS011;70716;50.074;14.496;2023-06-14T11:13:47;6.05;;;3.20;;
81242;SDS011;70716;50.074;14.496;2023-06-14T11:16:14;6.65;;;3.53;;
81242;SDS011;70716;50.074;14.496;2023-06-14T11:18:42;8.38;;;3.75;;
81242;SDS011;70716;50.074;14.496;2023-06-14T11:21:09;6.97;;;3.95;;
81242;SDS011;70716;50.074;14.496;2023-06-14T11:23:35;6.20;;;3.42;;
81242;SDS011;70716;50.074;14.496;2023-06-14T11:26:01;5.72;;;3.28;;
81242;SDS011;70716;50.074;14.496;2023-06-14T11:28:39;6.97;;;3.40;;
81242;SDS011;70716;50.074;14.496;2023-06-14T11:31:06;7.13;;;3.95;;
81242;SDS011;70716;50.074;14.496;2023-06-14T11:33:33;7.22;;;3.40;;
81242;SDS011;70716;50.074;14.496;2023-06-14T11:36:01;7.50;;;3.92;;
81242;SDS011;70716;50.074;14.496;2023-06-14T11:38:29;6.45;;;3.40;;
81242;SDS011;70716;50.074;14.496;2023-06-14T11:40:58;5.68;;;3.58;;
81242;SDS011;70716;50.074;14.496;2023-06-14T11:43:25;7.80;;;3.85;;
81242;SDS011;70716;50.074;14.496;2023-06-14T11:45:52;6.55;;;3.85;;
81242;SDS011;70716;50.074;14.496;2023-06-14T11:48:17;6.22;;;4.07;;
81242;SDS011;70716;50.074;14.496;2023-06-14T11:50:43;6.25;;;3.70;;
81242;SDS011;70716;50.074;14.496;2023-06-14T11:53:08;5.68;;;3.13;;
81242;SDS011;70716;50.074;14.496;2023-06-14T11:55:36;7.00;;;3.75;;
81242;SDS011;70716;50.074;14.496;2023-06-14T11:58:03;6.35;;;3.60;;
81242;SDS011;70716;50.074;14.496;2023-06-14T12:00:29;6.60;;;3.72;;
81242;SDS011;70716;50.074;14.496;2023-06-14T12:02:55;6.18;;;3.90;;
81242;SDS011;70716;50.074;14.496;2023-06-14T12:05:21;7.38;;;3.75;;
81242;SDS011;70716;50.074;14.496;2023-06-14T12:07:48;5.93;;;3.15;;
81242;SDS011;70716;50.074;14.496;2023-06-14T12:10:15;6.20;;;4.20;;
81242;SDS011;70716;50.074;14.496;2023-06-14T12:12:40;9.00;;;4.53;;
81242;SDS011;70716;50.074;14.496;2023-06-14T12:15:07;6.10;;;3.60;;
81242;SDS011;70716;50.074;14.496;2023-06-14T12:17:34;5.78;;;3.83;;
81242;SDS011;70716;50.074;14.496;2023-06-14T12:20:10;6.10;;;3.53;;
81242;SDS011;70716;50.074;14.496;2023-06-14T12:25:27;5.88;;;3.70;;
81242;SDS011;70716;50.074;14.496;2023-06-14T12:28:07;6.53;;;3.60;;
81242;SDS011;70716;50.074;14.496;2023-06-14T12:30:34;8.18;;;3.58;;
81242;SDS011;70716;50.074;14.496;2023-06-14T12:33:01;7.10;;;3.60;;
81242;SDS011;70716;50.074;14.496;2023-06-14T12:35:27;7.55;;;4.10;;
81242;SDS011;70716;50.074;14.496;2023-06-14T12:37:52;6.07;;;3.40;;
81242;SDS011;70716;50.074;14.496;2023-06-14T12:40:18;5.75;;;3.10;;
81242;SDS011;70716;50.074;14.496;2023-06-14T12:42:44;6.32;;;3.60;;
81242;SDS011;70716;50.074;14.496;2023-06-14T12:45:10;6.30;;;3.80;;
81242;SDS011;70716;50.074;14.496;2023-06-14T12:47:35;6.30;;;3.50;;
81242;SDS011;70716;50.074;14.496;2023-06-14T12:50:02;6.40;;;3.90;;
81242;SDS011;70716;50.074;14.496;2023-06-14T12:52:27;7.95;;;3.38;;
81242;SDS011;70716;50.074;14.496;2023-06-14T12:54:53;5.60;;;3.13;;
81242;SDS011;70716;50.074;14.496;2023-06-14T12:57:18;6.13;;;3.40;;
81242;SDS011;70716;50.074;14.496;2023-06-14T12:59:44;6.43;;;3.40;;
81242;SDS011;70716;50.074;14.496;2023-06-14T13:02:19;6.55;;;3.15;;
81242;SDS011;70716;50.074;14.496;2023-06-14T13:04:49;6.68;;;3.42;;
81242;SDS011;70716;50.074;14.496;2023-06-14T13:07:15;6.13;;;3.25;;
81242;SDS011;70716;50.074;14.496;2023-06-14T13:09:41;6.30;;;3.63;;
81242;SDS011;70716;50.074;14.496;2023-06-14T13:12:07;9.00;;;3.70;;
81242;SDS011;70716;50.074;14.496;2023-06-14T13:14:35;5.80;;;3.53;;
81242;SDS011;70716;50.074;14.496;2023-06-14T13:17:01;8.43;;;3.60;;
81242;SDS011;70716;50.074;14.496;2023-06-14T13:19:26;5.38;;;2.95;;
81242;SDS011;70716;50.074;14.496;2023-06-14T13:21:52;5.63;;;3.15;;
81242;SDS011;70716;50.074;14.496;2023-06-14T13:24:17;7.05;;;2.78;;
81242;SDS011;70716;50.074;14.496;2023-06-14T13:26:43;6.05;;;3.60;;
81242;SDS011;70716;50.074;14.496;2023-06-14T13:29:08;6.93;;;3.22;;
81242;SDS011;70716;50.074;14.496;2023-06-14T13:31:34;6.38;;;3.10;;
81242;SDS011;70716;50.074;14.496;2023-06-14T13:33:59;5.60;;;2.80;;
81242;SDS011;70716;50.074;14.496;2023-06-14T13:36:24;5.43;;;3.22;;
81242;SDS011;70716;50.074;14.496;2023-06-14T13:38:50;5.68;;;3.17;;
81242;SDS011;70716;50.074;14.496;2023-06-14T13:41:17;5.18;;;2.95;;
81242;SDS011;70716;50.074;14.496;2023-06-14T13:43:43;6.93;;;3.10;;
81242;SDS011;70716;50.074;14.496;2023-06-14T13:46:08;5.60;;;3.17;;
81242;SDS011;70716;50.074;14.496;2023-06-14T13:48:33;5.93;;;3.40;;
81242;SDS011;70716;50.074;14.496;2023-06-14T13:50:59;5.90;;;3.15;;
81242;SDS011;70716;50.074;14.496;2023-06-14T13:53:25;7.45;;;2.88;;
81242;SDS011;70716;50.074;14.496;2023-06-14T13:55:51;6.10;;;2.83;;
81242;SDS011;70716;50.074;14.496;2023-06-14T13:58:17;6.97;;;2.85;;
81242;SDS011;70716;50.074;14.496;2023-06-14T14:00:43;5.55;;;2.47;;
81242;SDS011;70716;50.074;14.496;2023-06-14T14:03:09;5.63;;;2.60;;
81242;SDS011;70716;50.074;14.496;2023-06-14T14:05:34;9.18;;;2.90;;
81242;SDS011;70716;50.074;14.496;2023-06-14T14:07:59;6.10;;;2.65;;
81242;SDS011;70716;50.074;14.496;2023-06-14T14:10:25;6.03;;;2.60;;
81242;SDS011;70716;50.074;14.496;2023-06-14T14:12:50;5.70;;;2.85;;
81242;SDS011;70716;50.074;14.496;2023-06-14T14:15:17;6.50;;;2.95;;
81242;SDS011;70716;50.074;14.496;2023-06-14T14:17:43;5.05;;;2.40;;
81242;SDS011;70716;50.074;14.496;2023-06-14T14:20:08;5.07;;;2.22;;
81242;SDS011;70716;50.074;14.496;2023-06-14T14:22:36;5.82;;;3.03;;
81242;SDS011;70716;50.074;14.496;2023-06-14T14:25:02;5.60;;;2.97;;
81242;SDS011;70716;50.074;14.496;2023-06-14T14:27:27;6.03;;;3.03;;
81242;SDS011;70716;50.074;14.496;2023-06-14T14:29:52;7.25;;;2.97;;
81242;SDS011;70716;50.074;14.496;2023-06-14T14:32:18;4.60;;;2.30;;
81242;SDS011;70716;50.074;14.496;2023-06-14T14:34:43;7.60;;;3.40;;
81242;SDS011;70716;50.074;14.496;2023-06-14T14:37:08;5.15;;;2.70;;
81242;SDS011;70716;50.074;14.496;2023-06-14T14:39:34;6.07;;;3.15;;
81242;SDS011;70716;50.074;14.496;2023-06-14T14:41:59;5.75;;;2.80;;
81242;SDS011;70716;50.074;14.496;2023-06-14T14:44:25;6.25;;;2.80;;
81242;SDS011;70716;50.074;14.496;2023-06-14T14:46:50;6.13;;;3.03;;
81242;SDS011;70716;50.074;14.496;2023-06-14T14:49:15;5.60;;;3.13;;
81242;SDS011;70716;50.074;14.496;2023-06-14T14:51:41;5.10;;;2.63;;
81242;SDS011;70716;50.074;14.496;2023-06-14T14:54:06;6.95;;;3.20;;
81242;SDS011;70716;50.074;14.496;2023-06-14T14:56:32;5.85;;;3.15;;
81242;SDS011;70716;50.074;14.496;2023-06-14T14:59:00;5.07;;;2.47;;
81242;SDS011;70716;50.074;14.496;2023-06-14T15:01:27;6.93;;;2.80;;
81242;SDS011;70716;50.074;14.496;2023-06-14T15:03:53;7.13;;;3.25;;
81242;SDS011;70716;50.074;14.496;2023-06-14T15:06:18;5.53;;;3.08;;
81242;SDS011;70716;50.074;14.496;2023-06-14T15:08:43;5.30;;;2.70;;
81242;SDS011;70716;50.074;14.496;2023-06-14T15:11:09;5.28;;;2.80;;
81242;SDS011;70716;50.074;14.496;2023-06-14T15:13:38;5.78;;;2.80;;